createdAt,value
2023-03-23T15:59:09.702Z,100363.31
2023-03-23T16:01:38.260Z,100359.13
2023-03-23T16:04:09.369Z,100366.16
2023-03-23T16:06:37.285Z,100372.31
2023-03-23T16:09:05.607Z,100372.50
2023-03-23T16:11:32.788Z,100371.50
2023-03-23T16:13:59.965Z,100363.63
2023-03-23T16:16:31.852Z,100364.22
2023-03-23T16:19:00.228Z,100369.47
2023-03-23T16:21:27.153Z,100370.53
2023-03-23T16:23:54.382Z,100367.56
2023-03-23T16:26:21.043Z,100368.16
2023-03-23T16:28:47.651Z,100373.16
2023-03-23T16:31:14.297Z,100380.50
2023-03-23T16:33:41.177Z,100384.69
2023-03-23T16:36:08.236Z,100379.53
2023-03-23T16:38:50.130Z,100375.16
2023-03-23T16:41:18.181Z,100367.66
2023-03-23T16:43:44.728Z,100366.09
2023-03-23T16:46:12.774Z,100380.56
2023-03-23T16:48:39.923Z,100380.28
2023-03-23T16:51:06.699Z,100374.91
2023-03-23T16:53:33.379Z,100377.56
2023-03-23T16:55:59.947Z,100387.66
2023-03-23T16:58:29.228Z,100381.31
2023-03-23T17:00:55.785Z,100384.13
2023-03-23T17:03:23.106Z,100386.78
2023-03-23T17:05:51.494Z,100382.19
2023-03-23T17:08:19.538Z,100391.94
2023-03-23T17:10:47.502Z,100398.72
2023-03-23T17:13:14.237Z,100393.19
2023-03-23T17:15:45.131Z,100387.78
2023-03-23T17:18:13.513Z,100388.31
2023-03-23T17:20:40.072Z,100399.19
2023-03-23T17:23:06.667Z,100396.94
2023-03-23T17:25:33.486Z,100403.22
2023-03-23T17:28:05.088Z,100399.47
2023-03-23T17:30:33.049Z,100413.63
2023-03-23T17:32:59.732Z,100399.34
2023-03-23T17:35:26.568Z,100400.69
2023-03-23T17:37:53.194Z,100406.47
2023-03-23T17:40:19.874Z,100412.03
2023-03-23T17:42:46.578Z,100413.38
2023-03-23T17:45:13.227Z,100410.75
2023-03-23T17:47:39.986Z,100418.50
2023-03-23T17:50:14.935Z,100431.47
2023-03-23T17:52:41.694Z,100424.44
2023-03-23T17:55:08.701Z,100439.84
2023-03-23T17:57:35.548Z,100438.41
2023-03-23T18:00:03.550Z,100442.69
2023-03-23T18:02:30.147Z,100434.97
2023-03-23T18:04:58.050Z,100438.94
2023-03-23T18:07:24.568Z,100427.28
2023-03-23T18:09:51.120Z,100431.22
2023-03-23T18:12:18.027Z,100423.97
2023-03-23T18:14:44.762Z,100428.88
2023-03-23T18:17:11.408Z,100430.84
2023-03-23T18:19:37.970Z,100435.59
2023-03-23T18:22:04.714Z,100440.00
2023-03-23T18:24:31.322Z,100441.78
2023-03-23T18:26:57.880Z,100438.50
2023-03-23T18:29:24.553Z,100439.31
2023-03-23T18:31:51.137Z,100436.78
2023-03-23T18:34:17.750Z,100428.91
2023-03-23T18:36:44.365Z,100422.13
2023-03-23T18:39:11.026Z,100428.66
2023-03-23T18:41:38.282Z,100424.22
2023-03-23T18:44:04.977Z,100431.06
2023-03-23T18:46:31.821Z,100429.09
2023-03-23T18:48:58.526Z,100434.88
2023-03-23T18:51:25.146Z,100435.94
2023-03-23T18:53:52.011Z,100428.84
2023-03-23T18:56:18.787Z,100431.84
2023-03-23T18:58:45.753Z,100434.97
2023-03-23T19:01:15.197Z,100430.16
2023-03-23T19:03:42.065Z,100432.59
2023-03-23T19:06:21.491Z,100426.72
2023-03-23T19:08:49.590Z,100428.31
2023-03-23T19:11:16.857Z,100425.22
2023-03-23T19:13:54.000Z,100429.97
2023-03-23T19:16:28.481Z,100424.53
2023-03-23T19:18:55.206Z,100422.38
2023-03-23T19:21:25.552Z,100421.38
2023-03-23T19:23:54.464Z,100419.97
2023-03-23T19:26:29.324Z,100425.53
2023-03-23T19:31:25.669Z,100434.41
2023-03-23T19:33:53.299Z,100438.25
2023-03-23T19:36:21.773Z,100441.56
2023-03-23T19:38:49.115Z,100455.13
2023-03-23T19:41:15.887Z,100453.59
2023-03-23T19:43:44.896Z,100461.94
2023-03-23T19:46:11.954Z,100457.22
2023-03-23T19:48:39.916Z,100460.75
2023-03-23T19:51:07.322Z,100459.91
2023-03-23T19:53:34.303Z,100473.16
2023-03-23T19:56:02.920Z,100469.06
2023-03-23T19:58:30.722Z,100474.31
2023-03-23T20:00:57.491Z,100477.59
2023-03-23T20:03:24.084Z,100465.69
2023-03-23T20:05:51.249Z,100461.84
2023-03-23T20:08:17.944Z,100458.97
2023-03-23T20:10:44.726Z,100445.53
2023-03-23T20:13:11.970Z,100444.28
2023-03-23T20:15:38.571Z,100444.47
2023-03-23T20:18:08.225Z,100435.13
2023-03-23T20:20:34.812Z,100435.22
2023-03-23T20:23:01.563Z,100432.22
2023-03-23T20:25:29.224Z,100436.91
2023-03-23T20:27:56.120Z,100432.06
2023-03-23T20:30:22.715Z,100437.53
2023-03-23T20:32:49.341Z,100431.44
2023-03-23T20:35:15.938Z,100423.63
2023-03-23T20:37:42.758Z,100436.00
2023-03-23T20:40:13.404Z,100432.34
2023-03-23T20:42:40.631Z,100436.28
2023-03-23T20:45:07.243Z,100427.22
2023-03-23T20:47:34.064Z,100431.94
2023-03-23T20:50:00.735Z,100421.03
2023-03-23T20:52:27.288Z,100423.78
2023-03-23T20:54:55.586Z,100421.63
2023-03-23T20:57:22.876Z,100415.88
2023-03-23T20:59:52.549Z,100427.19
2023-03-23T21:02:20.117Z,100428.91
2023-03-23T21:04:47.897Z,100433.56
2023-03-23T21:07:15.898Z,100440.44
2023-03-23T21:09:42.882Z,100438.19
2023-03-23T21:12:10.461Z,100435.19
2023-03-23T21:14:39.207Z,100437.97
2023-03-23T21:17:07.479Z,100427.91
2023-03-23T21:19:34.615Z,100428.09
2023-03-23T21:22:01.244Z,100423.19
2023-03-23T21:24:30.676Z,100425.94
2023-03-23T21:27:00.541Z,100429.25
2023-03-23T21:29:28.018Z,100424.81
2023-03-23T21:32:07.761Z,100430.88
2023-03-23T21:34:35.640Z,100428.63
2023-03-23T21:37:02.385Z,100425.13
2023-03-23T21:39:29.075Z,100427.19
2023-03-23T21:41:55.868Z,100435.78
2023-03-23T21:44:22.878Z,100437.81
2023-03-23T21:46:49.459Z,100433.41
2023-03-23T21:49:16.021Z,100439.38
2023-03-23T21:51:43.015Z,100430.22
2023-03-23T21:54:10.813Z,100427.34
2023-03-23T21:56:37.777Z,100427.22
2023-03-23T21:59:04.561Z,100425.50
2023-03-23T22:01:31.332Z,100429.41
2023-03-23T22:03:58.121Z,100427.13
2023-03-23T22:06:25.968Z,100420.00
2023-03-23T22:08:53.517Z,100419.88
2023-03-23T22:11:26.597Z,100426.78
2023-03-23T22:13:54.599Z,100414.34
2023-03-23T22:16:22.275Z,100418.84
2023-03-23T22:18:50.260Z,100415.06
2023-03-23T22:21:18.228Z,100421.81
2023-03-23T22:23:46.067Z,100421.88
2023-03-23T22:26:13.330Z,100417.09
2023-03-23T22:28:40.541Z,100417.09
2023-03-23T22:31:12.112Z,100415.81
2023-03-23T22:33:39.079Z,100408.59
2023-03-23T22:36:06.792Z,100414.69
2023-03-23T22:38:34.411Z,100418.50
2023-03-23T22:41:01.557Z,100422.50
2023-03-23T22:43:29.158Z,100423.09
2023-03-23T22:45:55.912Z,100431.41
2023-03-23T22:48:24.221Z,100435.22
2023-03-23T22:50:51.078Z,100436.88
2023-03-23T22:53:18.799Z,100441.34
2023-03-23T22:55:47.897Z,100440.91
2023-03-23T22:58:15.389Z,100445.09
2023-03-23T23:00:46.673Z,100447.38
2023-03-23T23:03:13.768Z,100449.63
2023-03-23T23:05:50.537Z,100447.16
2023-03-23T23:08:18.201Z,100448.34
2023-03-23T23:10:47.518Z,100445.50
2023-03-23T23:13:14.368Z,100454.59
2023-03-23T23:15:43.803Z,100447.75
2023-03-23T23:18:10.628Z,100453.81
2023-03-23T23:20:37.440Z,100462.25
2023-03-23T23:23:05.277Z,100462.44
2023-03-23T23:25:33.136Z,100462.72
2023-03-23T23:28:04.648Z,100463.31
2023-03-23T23:30:31.965Z,100464.72
2023-03-23T23:32:58.792Z,100458.66
2023-03-23T23:35:26.383Z,100462.38
2023-03-23T23:37:53.769Z,100460.25
2023-03-23T23:40:20.953Z,100462.75
2023-03-23T23:42:49.605Z,100455.09
2023-03-23T23:45:16.872Z,100459.19
2023-03-23T23:47:43.852Z,100458.34
2023-03-23T23:50:12.216Z,100459.25
2023-03-23T23:52:40.286Z,100461.28
2023-03-23T23:55:08.996Z,100462.47
2023-03-23T23:57:36.162Z,100458.34
